sensor_id;sensor_type;location;lat;lon;timestamp;temperature;humidity
26099;DHT22;13860;52.370;6.764;2023-12-20T00:03:01;7.70;91.20
26099;DHT22;13860;52.370;6.764;2023-12-20T00:06:07;7.70;91.20
26099;DHT22;13860;52.370;6.764;2023-12-20T00:09:14;7.70;91.30
26099;DHT22;13860;52.370;6.764;2023-12-20T00:12:22;7.70;91.20
26099;DHT22;13860;52.370;6.764;2023-12-20T00:15:33;7.60;91.20
26099;DHT22;13860;52.370;6.764;2023-12-20T00:18:38;7.60;91.30
26099;DHT22;13860;52.370;6.764;2023-12-20T00:21:46;7.60;91.30
26099;DHT22;13860;52.370;6.764;2023-12-20T00:24:52;7.50;91.20
26099;DHT22;13860;52.370;6.764;2023-12-20T00:28:03;7.50;91.20
26099;DHT22;13860;52.370;6.764;2023-12-20T00:31:12;7.50;91.30
26099;DHT22;13860;52.370;6.764;2023-12-20T00:34:27;7.40;91.20
26099;DHT22;13860;52.370;6.764;2023-12-20T00:37:42;7.30;91.20
26099;DHT22;13860;52.370;6.764;2023-12-20T00:40:53;7.40;91.20
26099;DHT22;13860;52.370;6.764;2023-12-20T00:44:02;7.30;91.20
26099;DHT22;13860;52.370;6.764;2023-12-20T00:47:14;7.30;91.20
26099;DHT22;13860;52.370;6.764;2023-12-20T00:50:27;7.30;91.20
26099;DHT22;13860;52.370;6.764;2023-12-20T00:53:37;7.40;91.30
26099;DHT22;13860;52.370;6.764;2023-12-20T00:56:46;7.30;91.20
26099;DHT22;13860;52.370;6.764;2023-12-20T00:59:55;7.20;91.20
26099;DHT22;13860;52.370;6.764;2023-12-20T01:03:04;7.20;91.20
26099;DHT22;13860;52.370;6.764;2023-12-20T01:06:11;7.20;91.20
26099;DHT22;13860;52.370;6.764;2023-12-20T01:09:18;7.20;91.20
26099;DHT22;13860;52.370;6.764;2023-12-20T01:12:28;7.10;91.20
26099;DHT22;13860;52.370;6.764;2023-12-20T01:15:34;7.10;91.20
26099;DHT22;13860;52.370;6.764;2023-12-20T01:18:44;7.10;91.20
26099;DHT22;13860;52.370;6.764;2023-12-20T01:21:50;7.10;91.20
26099;DHT22;13860;52.370;6.764;2023-12-20T01:24:57;7.00;91.10
26099;DHT22;13860;52.370;6.764;2023-12-20T01:28:04;7.00;91.10
26099;DHT22;13860;52.370;6.764;2023-12-20T01:31:11;6.90;91.10
26099;DHT22;13860;52.370;6.764;2023-12-20T01:34:20;6.90;91.10
26099;DHT22;13860;52.370;6.764;2023-12-20T01:37:28;6.90;91.10
26099;DHT22;13860;52.370;6.764;2023-12-20T01:40:33;6.90;91.20
26099;DHT22;13860;52.370;6.764;2023-12-20T01:43:41;6.80;91.10
26099;DHT22;13860;52.370;6.764;2023-12-20T01:46:53;6.80;91.10
26099;DHT22;13860;52.370;6.764;2023-12-20T01:50:05;6.80;91.10
26099;DHT22;13860;52.370;6.764;2023-12-20T01:53:12;6.70;91.10
26099;DHT22;13860;52.370;6.764;2023-12-20T01:56:20;6.70;91.40
26099;DHT22;13860;52.370;6.764;2023-12-20T01:59:26;6.70;91.10
26099;DHT22;13860;52.370;6.764;2023-12-20T02:02:34;6.70;91.20
26099;DHT22;13860;52.370;6.764;2023-12-20T02:05:44;6.70;91.20
26099;DHT22;13860;52.370;6.764;2023-12-20T02:08:53;6.70;91.20
26099;DHT22;13860;52.370;6.764;2023-12-20T02:12:00;6.70;91.20
26099;DHT22;13860;52.370;6.764;2023-12-20T02:15:13;6.70;91.20
26099;DHT22;13860;52.370;6.764;2023-12-20T02:18:22;6.60;91.20
26099;DHT22;13860;52.370;6.764;2023-12-20T02:21:36;6.60;91.20
26099;DHT22;13860;52.370;6.764;2023-12-20T02:25:05;6.60;91.20
26099;DHT22;13860;52.370;6.764;2023-12-20T02:28:17;6.70;91.20
26099;DHT22;13860;52.370;6.764;2023-12-20T02:31:25;6.60;91.20
26099;DHT22;13860;52.370;6.764;2023-12-20T02:34:35;7.10;91.30
26099;DHT22;13860;52.370;6.764;2023-12-20T02:37:50;6.60;91.20
26099;DHT22;13860;52.370;6.764;2023-12-20T02:40:57;6.60;91.20
26099;DHT22;13860;52.370;6.764;2023-12-20T02:44:03;6.60;91.20
26099;DHT22;13860;52.370;6.764;2023-12-20T02:47:11;6.60;91.20
26099;DHT22;13860;52.370;6.764;2023-12-20T02:50:17;6.60;91.20
26099;DHT22;13860;52.370;6.764;2023-12-20T02:53:27;6.50;91.20
26099;DHT22;13860;52.370;6.764;2023-12-20T02:56:32;6.60;91.20
26099;DHT22;13860;52.370;6.764;2023-12-20T02:59:40;6.40;91.20
26099;DHT22;13860;52.370;6.764;2023-12-20T03:02:46;6.50;91.20
26099;DHT22;13860;52.370;6.764;2023-12-20T03:05:53;6.50;91.20
26099;DHT22;13860;52.370;6.764;2023-12-20T03:09:01;6.50;91.20
26099;DHT22;13860;52.370;6.764;2023-12-20T03:12:09;6.50;91.20
26099;DHT22;13860;52.370;6.764;2023-12-20T03:15:15;6.40;91.20
26099;DHT22;13860;52.370;6.764;2023-12-20T03:18:22;6.40;91.30
26099;DHT22;13860;52.370;6.764;2023-12-20T03:21:30;6.40;91.20
26099;DHT22;13860;52.370;6.764;2023-12-20T03:24:40;6.40;91.30
26099;DHT22;13860;52.370;6.764;2023-12-20T03:27:46;6.40;91.30
26099;DHT22;13860;52.370;6.764;2023-12-20T03:30:53;6.40;91.30
26099;DHT22;13860;52.370;6.764;2023-12-20T03:33:59;6.50;91.30
26099;DHT22;13860;52.370;6.764;2023-12-20T03:37:07;6.40;91.60
26099;DHT22;13860;52.370;6.764;2023-12-20T03:40:16;6.40;91.30
26099;DHT22;13860;52.370;6.764;2023-12-20T03:43:23;6.50;91.30
26099;DHT22;13860;52.370;6.764;2023-12-20T03:46:29;6.50;91.40
26099;DHT22;13860;52.370;6.764;2023-12-20T03:49:37;6.50;91.40
26099;DHT22;13860;52.370;6.764;2023-12-20T03:52:42;6.50;91.40
26099;DHT22;13860;52.370;6.764;2023-12-20T03:55:52;6.50;91.40
26099;DHT22;13860;52.370;6.764;2023-12-20T03:58:58;6.60;91.40
26099;DHT22;13860;52.370;6.764;2023-12-20T04:02:05;6.50;91.40
26099;DHT22;13860;52.370;6.764;2023-12-20T04:05:13;6.60;91.40
26099;DHT22;13860;52.370;6.764;2023-12-20T04:08:21;6.60;91.40
26099;DHT22;13860;52.370;6.764;2023-12-20T04:11:30;6.70;91.40
26099;DHT22;13860;52.370;6.764;2023-12-20T04:14:42;7.30;91.60
26099;DHT22;13860;52.370;6.764;2023-12-20T04:17:50;6.70;91.40
26099;DHT22;13860;52.370;6.764;2023-12-20T04:21:07;6.70;91.40
26099;DHT22;13860;52.370;6.764;2023-12-20T04:24:20;6.70;91.40
26099;DHT22;13860;52.370;6.764;2023-12-20T04:27:30;6.70;91.40
26099;DHT22;13860;52.370;6.764;2023-12-20T04:30:36;6.70;91.40
26099;DHT22;13860;52.370;6.764;2023-12-20T04:33:44;6.70;91.40
26099;DHT22;13860;52.370;6.764;2023-12-20T04:36:50;6.70;91.40
26099;DHT22;13860;52.370;6.764;2023-12-20T04:39:58;6.80;91.40
26099;DHT22;13860;52.370;6.764;2023-12-20T04:43:07;6.80;91.40
26099;DHT22;13860;52.370;6.764;2023-12-20T04:46:15;6.80;91.40
26099;DHT22;13860;52.370;6.764;2023-12-20T04:49:20;6.80;91.40
26099;DHT22;13860;52.370;6.764;2023-12-20T04:52:28;6.80;91.40
26099;DHT22;13860;52.370;6.764;2023-12-20T04:55:34;6.80;91.40
26099;DHT22;13860;52.370;6.764;2023-12-20T04:58:45;6.80;91.40
26099;DHT22;13860;52.370;6.764;2023-12-20T05:01:51;6.80;91.40
26099;DHT22;13860;52.370;6.764;2023-12-20T05:04:58;6.90;91.50
26099;DHT22;13860;52.370;6.764;2023-12-20T05:08:05;6.90;91.40
26099;DHT22;13860;52.370;6.764;2023-12-20T05:11:13;6.90;91.40
26099;DHT22;13860;52.370;6.764;2023-12-20T05:14:22;6.90;91.50
26099;DHT22;13860;52.370;6.764;2023-12-20T05:17:29;6.90;91.50
26099;DHT22;13860;52.370;6.764;2023-12-20T05:20:35;6.90;91.50
26099;DHT22;13860;52.370;6.764;2023-12-20T05:23:43;6.90;91.50
26099;DHT22;13860;52.370;6.764;2023-12-20T05:26:48;6.90;91.40
26099;DHT22;13860;52.370;6.764;2023-12-20T05:30:00;6.90;91.40
26099;DHT22;13860;52.370;6.764;2023-12-20T05:33:08;7.00;91.40
26099;DHT22;13860;52.370;6.764;2023-12-20T05:36:15;7.00;91.50
26099;DHT22;13860;52.370;6.764;2023-12-20T05:39:21;7.00;91.50
26099;DHT22;13860;52.370;6.764;2023-12-20T05:42:29;7.00;91.40
26099;DHT22;13860;52.370;6.764;2023-12-20T05:45:37;7.00;91.40
26099;DHT22;13860;52.370;6.764;2023-12-20T05:48:45;7.00;91.40
26099;DHT22;13860;52.370;6.764;2023-12-20T05:51:54;7.00;91.40
26099;DHT22;13860;52.370;6.764;2023-12-20T05:55:03;7.10;91.40
26099;DHT22;13860;52.370;6.764;2023-12-20T05:58:09;7.10;91.40
26099;DHT22;13860;52.370;6.764;2023-12-20T06:01:20;7.10;91.50
26099;DHT22;13860;52.370;6.764;2023-12-20T06:04:30;7.10;91.40
26099;DHT22;13860;52.370;6.764;2023-12-20T06:07:40;7.10;91.40
26099;DHT22;13860;52.370;6.764;2023-12-20T06:10:49;7.10;91.40
26099;DHT22;13860;52.370;6.764;2023-12-20T06:13:59;7.20;91.40
26099;DHT22;13860;52.370;6.764;2023-12-20T06:17:11;7.50;91.80
26099;DHT22;13860;52.370;6.764;2023-12-20T06:20:24;7.20;91.40
26099;DHT22;13860;52.370;6.764;2023-12-20T06:23:30;7.20;91.40
26099;DHT22;13860;52.370;6.764;2023-12-20T06:26:39;7.20;91.40
26099;DHT22;13860;52.370;6.764;2023-12-20T06:29:45;7.10;91.40
26099;DHT22;13860;52.370;6.764;2023-12-20T06:32:55;7.20;91.40
26099;DHT22;13860;52.370;6.764;2023-12-20T06:36:02;7.30;91.40
26099;DHT22;13860;52.370;6.764;2023-12-20T06:39:13;7.20;91.40
26099;DHT22;13860;52.370;6.764;2023-12-20T06:42:18;7.20;91.40
26099;DHT22;13860;52.370;6.764;2023-12-20T06:45:26;7.20;91.40
26099;DHT22;13860;52.370;6.764;2023-12-20T06:48:34;7.20;91.40
26099;DHT22;13860;52.370;6.764;2023-12-20T06:51:42;7.30;91.40
26099;DHT22;13860;52.370;6.764;2023-12-20T06:54:48;7.30;91.40
26099;DHT22;13860;52.370;6.764;2023-12-20T06:57:55;7.30;91.40
26099;DHT22;13860;52.370;6.764;2023-12-20T07:01:01;7.30;91.30
26099;DHT22;13860;52.370;6.764;2023-12-20T07:04:12;7.30;91.40
26099;DHT22;13860;52.370;6.764;2023-12-20T07:10:33;7.30;91.30
26099;DHT22;13860;52.370;6.764;2023-12-20T07:13:41;7.50;91.40
26099;DHT22;13860;52.370;6.764;2023-12-20T07:16:48;7.30;91.30
26099;DHT22;13860;52.370;6.764;2023-12-20T07:20:00;7.40;91.40
26099;DHT22;13860;52.370;6.764;2023-12-20T07:23:10;7.30;91.40
26099;DHT22;13860;52.370;6.764;2023-12-20T07:26:15;7.30;91.40
26099;DHT22;13860;52.370;6.764;2023-12-20T07:29:26;7.40;91.50
26099;DHT22;13860;52.370;6.764;2023-12-20T07:32:32;7.40;91.40
26099;DHT22;13860;52.370;6.764;2023-12-20T07:35:43;7.40;91.40
26099;DHT22;13860;52.370;6.764;2023-12-20T07:38:49;7.40;91.40
26099;DHT22;13860;52.370;6.764;2023-12-20T07:42:02;7.50;91.50
26099;DHT22;13860;52.370;6.764;2023-12-20T07:45:10;7.40;91.40
26099;DHT22;13860;52.370;6.764;2023-12-20T07:48:33;7.50;91.40
26099;DHT22;13860;52.370;6.764;2023-12-20T07:51:56;7.50;91.40
26099;DHT22;13860;52.370;6.764;2023-12-20T07:55:07;7.50;91.50
26099;DHT22;13860;52.370;6.764;2023-12-20T07:58:20;7.50;91.40
26099;DHT22;13860;52.370;6.764;2023-12-20T08:01:48;7.60;91.50
26099;DHT22;13860;52.370;6.764;2023-12-20T08:05:04;7.60;91.40
26099;DHT22;13860;52.370;6.764;2023-12-20T08:08:15;7.60;91.40
26099;DHT22;13860;52.370;6.764;2023-12-20T08:11:20;7.60;91.40
26099;DHT22;13860;52.370;6.764;2023-12-20T08:14:33;7.70;91.40
26099;DHT22;13860;52.370;6.764;2023-12-20T08:17:52;7.60;91.40
26099;DHT22;13860;52.370;6.764;2023-12-20T08:21:04;7.60;91.40
26099;DHT22;13860;52.370;6.764;2023-12-20T08:24:22;7.70;91.40
26099;DHT22;13860;52.370;6.764;2023-12-20T08:27:32;7.60;91.30
26099;DHT22;13860;52.370;6.764;2023-12-20T08:30:41;7.70;91.50
26099;DHT22;13860;52.370;6.764;2023-12-20T08:33:49;8.40;91.60
26099;DHT22;13860;52.370;6.764;2023-12-20T08:37:13;7.80;91.50
26099;DHT22;13860;52.370;6.764;2023-12-20T08:40:25;7.80;91.40
26099;DHT22;13860;52.370;6.764;2023-12-20T08:43:35;7.70;91.30
26099;DHT22;13860;52.370;6.764;2023-12-20T08:46:53;7.90;91.40
26099;DHT22;13860;52.370;6.764;2023-12-20T08:50:07;7.80;91.30
26099;DHT22;13860;52.370;6.764;2023-12-20T08:53:20;7.80;91.30
26099;DHT22;13860;52.370;6.764;2023-12-20T08:56:30;7.80;91.30
26099;DHT22;13860;52.370;6.764;2023-12-20T08:59:39;7.80;91.30
26099;DHT22;13860;52.370;6.764;2023-12-20T09:02:48;7.80;91.60
26099;DHT22;13860;52.370;6.764;2023-12-20T09:05:59;7.90;91.30
26099;DHT22;13860;52.370;6.764;2023-12-20T09:09:10;7.90;91.30
26099;DHT22;13860;52.370;6.764;2023-12-20T09:12:25;7.90;91.30
26099;DHT22;13860;52.370;6.764;2023-12-20T09:15:32;7.90;91.60
26099;DHT22;13860;52.370;6.764;2023-12-20T09:18:42;7.80;91.30
26099;DHT22;13860;52.370;6.764;2023-12-20T09:21:57;7.80;91.30
26099;DHT22;13860;52.370;6.764;2023-12-20T09:25:10;7.90;91.40
26099;DHT22;13860;52.370;6.764;2023-12-20T09:28:29;7.90;91.40
26099;DHT22;13860;52.370;6.764;2023-12-20T09:31:48;7.90;91.30
26099;DHT22;13860;52.370;6.764;2023-12-20T09:34:57;8.00;91.40
26099;DHT22;13860;52.370;6.764;2023-12-20T09:38:15;8.00;91.40
26099;DHT22;13860;52.370;6.764;2023-12-20T09:41:21;8.00;91.40
26099;DHT22;13860;52.370;6.764;2023-12-20T09:44:36;8.00;91.40
26099;DHT22;13860;52.370;6.764;2023-12-20T09:47:52;8.00;91.30
26099;DHT22;13860;52.370;6.764;2023-12-20T09:51:03;8.00;91.40
26099;DHT22;13860;52.370;6.764;2023-12-20T09:54:11;8.00;91.40
26099;DHT22;13860;52.370;6.764;2023-12-20T09:57:22;8.00;91.40
26099;DHT22;13860;52.370;6.764;2023-12-20T10:00:39;8.10;91.40
26099;DHT22;13860;52.370;6.764;2023-12-20T10:03:48;8.10;91.40
26099;DHT22;13860;52.370;6.764;2023-12-20T10:07:01;8.10;91.40
26099;DHT22;13860;52.370;6.764;2023-12-20T10:10:10;8.10;91.40
26099;DHT22;13860;52.370;6.764;2023-12-20T10:13:20;8.10;91.40
26099;DHT22;13860;52.370;6.764;2023-12-20T10:16:32;8.20;91.50
26099;DHT22;13860;52.370;6.764;2023-12-20T10:19:44;8.10;91.50
26099;DHT22;13860;52.370;6.764;2023-12-20T10:22:52;8.20;91.50
26099;DHT22;13860;52.370;6.764;2023-12-20T10:25:59;8.20;91.50
26099;DHT22;13860;52.370;6.764;2023-12-20T10:29:10;8.20;91.50
26099;DHT22;13860;52.370;6.764;2023-12-20T10:32:27;8.20;91.50
26099;DHT22;13860;52.370;6.764;2023-12-20T10:35:35;8.30;91.50
26099;DHT22;13860;52.370;6.764;2023-12-20T10:38:44;8.30;91.50
26099;DHT22;13860;52.370;6.764;2023-12-20T10:41:53;8.40;91.80
26099;DHT22;13860;52.370;6.764;2023-12-20T10:45:02;8.40;91.50
26099;DHT22;13860;52.370;6.764;2023-12-20T10:48:13;8.50;91.60
26099;DHT22;13860;52.370;6.764;2023-12-20T10:51:37;8.50;91.60
26099;DHT22;13860;52.370;6.764;2023-12-20T10:54:46;8.60;91.60
26099;DHT22;13860;52.370;6.764;2023-12-20T10:57:58;8.60;91.60
26099;DHT22;13860;52.370;6.764;2023-12-20T11:01:08;8.70;91.90
26099;DHT22;13860;52.370;6.764;2023-12-20T11:04:21;8.70;91.60
26099;DHT22;13860;52.370;6.764;2023-12-20T11:07:33;8.70;91.60
26099;DHT22;13860;52.370;6.764;2023-12-20T11:14:11;8.90;91.60
26099;DHT22;13860;52.370;6.764;2023-12-20T11:17:40;8.90;91.90
26099;DHT22;13860;52.370;6.764;2023-12-20T11:20:50;8.90;91.60
26099;DHT22;13860;52.370;6.764;2023-12-20T11:23:55;9.00;91.50
26099;DHT22;13860;52.370;6.764;2023-12-20T11:27:03;9.00;91.50
26099;DHT22;13860;52.370;6.764;2023-12-20T11:30:10;9.00;91.40
26099;DHT22;13860;52.370;6.764;2023-12-20T11:33:21;8.90;91.60
26099;DHT22;13860;52.370;6.764;2023-12-20T11:36:33;8.90;91.20
26099;DHT22;13860;52.370;6.764;2023-12-20T11:39:43;8.80;91.20
26099;DHT22;13860;52.370;6.764;2023-12-20T11:42:50;8.70;91.10
26099;DHT22;13860;52.370;6.764;2023-12-20T11:46:03;8.70;91.20
26099;DHT22;13860;52.370;6.764;2023-12-20T11:49:10;8.60;91.10
26099;DHT22;13860;52.370;6.764;2023-12-20T11:52:20;8.60;91.10
26099;DHT22;13860;52.370;6.764;2023-12-20T11:55:26;8.50;91.10
26099;DHT22;13860;52.370;6.764;2023-12-20T11:58:34;8.40;91.10
26099;DHT22;13860;52.370;6.764;2023-12-20T12:01:40;8.50;91.10
26099;DHT22;13860;52.370;6.764;2023-12-20T12:04:48;8.40;91.10
26099;DHT22;13860;52.370;6.764;2023-12-20T12:07:57;8.40;91.10
26099;DHT22;13860;52.370;6.764;2023-12-20T12:11:04;8.40;91.10
26099;DHT22;13860;52.370;6.764;2023-12-20T12:14:10;8.30;91.10
26099;DHT22;13860;52.370;6.764;2023-12-20T12:17:20;8.30;91.10
26099;DHT22;13860;52.370;6.764;2023-12-20T12:20:26;8.30;91.10
26099;DHT22;13860;52.370;6.764;2023-12-20T12:23:36;8.30;91.10
26099;DHT22;13860;52.370;6.764;2023-12-20T12:26:42;8.20;91.10
26099;DHT22;13860;52.370;6.764;2023-12-20T12:30:00;8.20;91.10
26099;DHT22;13860;52.370;6.764;2023-12-20T12:33:07;8.20;91.10
26099;DHT22;13860;52.370;6.764;2023-12-20T12:36:15;8.20;91.10
26099;DHT22;13860;52.370;6.764;2023-12-20T12:39:24;8.30;91.10
26099;DHT22;13860;52.370;6.764;2023-12-20T12:42:32;8.20;91.10
26099;DHT22;13860;52.370;6.764;2023-12-20T12:45:37;8.20;91.10
26099;DHT22;13860;52.370;6.764;2023-12-20T12:48:45;8.20;91.10
26099;DHT22;13860;52.370;6.764;2023-12-20T12:51:51;8.20;91.10
26099;DHT22;13860;52.370;6.764;2023-12-20T12:55:04;8.20;91.10
26099;DHT22;13860;52.370;6.764;2023-12-20T12:58:09;8.20;91.20
26099;DHT22;13860;52.370;6.764;2023-12-20T13:01:17;8.20;91.20
26099;DHT22;13860;52.370;6.764;2023-12-20T13:04:23;8.20;91.20
26099;DHT22;13860;52.370;6.764;2023-12-20T13:07:31;8.20;91.10
26099;DHT22;13860;52.370;6.764;2023-12-20T13:10:39;8.10;91.10
26099;DHT22;13860;52.370;6.764;2023-12-20T13:13:47;8.20;91.10
26099;DHT22;13860;52.370;6.764;2023-12-20T13:16:52;8.10;91.10
26099;DHT22;13860;52.370;6.764;2023-12-20T13:20:00;8.10;91.10
26099;DHT22;13860;52.370;6.764;2023-12-20T13:23:06;8.10;91.10
26099;DHT22;13860;52.370;6.764;2023-12-20T13:26:16;8.10;91.10
26099;DHT22;13860;52.370;6.764;2023-12-20T13:29:22;8.20;91.20
26099;DHT22;13860;52.370;6.764;2023-12-20T13:32:31;8.10;91.20
26099;DHT22;13860;52.370;6.764;2023-12-20T13:35:38;8.10;91.10
26099;DHT22;13860;52.370;6.764;2023-12-20T13:38:46;8.10;91.20
26099;DHT22;13860;52.370;6.764;2023-12-20T13:41:54;8.10;91.10
26099;DHT22;13860;52.370;6.764;2023-12-20T13:45:06;8.20;91.20
26099;DHT22;13860;52.370;6.764;2023-12-20T13:48:12;8.10;91.10
26099;DHT22;13860;52.370;6.764;2023-12-20T13:51:19;8.20;91.10
26099;DHT22;13860;52.370;6.764;2023-12-20T13:54:25;8.10;91.10
26099;DHT22;13860;52.370;6.764;2023-12-20T13:57:35;8.10;91.10
26099;DHT22;13860;52.370;6.764;2023-12-20T14:00:56;8.10;91.20
26099;DHT22;13860;52.370;6.764;2023-12-20T14:04:04;8.10;91.10
26099;DHT22;13860;52.370;6.764;2023-12-20T14:07:10;8.10;91.10
26099;DHT22;13860;52.370;6.764;2023-12-20T14:10:18;8.10;91.10
26099;DHT22;13860;52.370;6.764;2023-12-20T14:13:26;8.30;91.30
26099;DHT22;13860;52.370;6.764;2023-12-20T14:16:34;8.10;91.20
26099;DHT22;13860;52.370;6.764;2023-12-20T14:19:40;8.10;91.30
26099;DHT22;13860;52.370;6.764;2023-12-20T14:22:48;8.10;91.30
26099;DHT22;13860;52.370;6.764;2023-12-20T14:25:54;8.10;91.30
26099;DHT22;13860;52.370;6.764;2023-12-20T14:29:06;8.10;91.30
26099;DHT22;13860;52.370;6.764;2023-12-20T14:32:12;8.10;91.30
26099;DHT22;13860;52.370;6.764;2023-12-20T14:35:20;8.20;91.30
26099;DHT22;13860;52.370;6.764;2023-12-20T14:38:28;8.20;91.30
26099;DHT22;13860;52.370;6.764;2023-12-20T14:41:36;8.20;91.30
26099;DHT22;13860;52.370;6.764;2023-12-20T14:44:45;8.30;91.40
26099;DHT22;13860;52.370;6.764;2023-12-20T14:47:56;8.20;91.30
26099;DHT22;13860;52.370;6.764;2023-12-20T14:51:04;8.30;91.30
26099;DHT22;13860;52.370;6.764;2023-12-20T14:54:12;8.30;91.30
26099;DHT22;13860;52.370;6.764;2023-12-20T14:57:17;8.30;91.30
26099;DHT22;13860;52.370;6.764;2023-12-20T15:00:27;8.30;91.40
26099;DHT22;13860;52.370;6.764;2023-12-20T15:03:33;8.30;91.40
26099;DHT22;13860;52.370;6.764;2023-12-20T15:06:41;8.30;91.40
26099;DHT22;13860;52.370;6.764;2023-12-20T15:09:47;8.30;91.50
26099;DHT22;13860;52.370;6.764;2023-12-20T15:12:55;8.40;91.40
26099;DHT22;13860;52.370;6.764;2023-12-20T15:16:04;8.40;91.40
26099;DHT22;13860;52.370;6.764;2023-12-20T15:19:12;8.40;91.40
26099;DHT22;13860;52.370;6.764;2023-12-20T15:22:18;8.50;91.50
26099;DHT22;13860;52.370;6.764;2023-12-20T15:25:26;8.50;91.50
26099;DHT22;13860;52.370;6.764;2023-12-20T15:28:32;8.50;91.50
26099;DHT22;13860;52.370;6.764;2023-12-20T15:31:45;8.50;91.50
26099;DHT22;13860;52.370;6.764;2023-12-20T15:34:51;8.50;91.50
26099;DHT22;13860;52.370;6.764;2023-12-20T15:37:59;8.50;91.50
26099;DHT22;13860;52.370;6.764;2023-12-20T15:41:06;8.50;91.40
26099;DHT22;13860;52.370;6.764;2023-12-20T15:44:14;8.80;91.50
26099;DHT22;13860;52.370;6.764;2023-12-20T15:47:22;8.60;91.40
26099;DHT22;13860;52.370;6.764;2023-12-20T15:50:30;8.70;91.40
26099;DHT22;13860;52.370;6.764;2023-12-20T15:53:35;8.60;91.40
26099;DHT22;13860;52.370;6.764;2023-12-20T15:56:43;8.60;91.40
26099;DHT22;13860;52.370;6.764;2023-12-20T15:59:50;8.60;91.40
26099;DHT22;13860;52.370;6.764;2023-12-20T16:03:00;8.70;91.50
26099;DHT22;13860;52.370;6.764;2023-12-20T16:06:06;8.70;91.50
26099;DHT22;13860;52.370;6.764;2023-12-20T16:09:13;8.60;91.40
26099;DHT22;13860;52.370;6.764;2023-12-20T16:12:19;8.60;91.40
26099;DHT22;13860;52.370;6.764;2023-12-20T16:15:26;8.60;91.70
26099;DHT22;13860;52.370;6.764;2023-12-20T16:18:34;8.60;91.40
26099;DHT22;13860;52.370;6.764;2023-12-20T16:21:42;8.60;91.40
26099;DHT22;13860;52.370;6.764;2023-12-20T16:24:48;8.70;91.50
26099;DHT22;13860;52.370;6.764;2023-12-20T16:27:56;8.70;91.40
26099;DHT22;13860;52.370;6.764;2023-12-20T16:31:01;8.70;91.40
26099;DHT22;13860;52.370;6.764;2023-12-20T16:34:12;8.70;91.40
26099;DHT22;13860;52.370;6.764;2023-12-20T16:37:17;8.70;91.40
26099;DHT22;13860;52.370;6.764;2023-12-20T16:40:25;8.80;91.50
26099;DHT22;13860;52.370;6.764;2023-12-20T16:43:31;8.70;91.40
26099;DHT22;13860;52.370;6.764;2023-12-20T16:46:39;8.70;91.40
26099;DHT22;13860;52.370;6.764;2023-12-20T16:49:47;8.70;91.60
26099;DHT22;13860;52.370;6.764;2023-12-20T16:52:54;8.70;91.40
26099;DHT22;13860;52.370;6.764;2023-12-20T16:56:00;8.70;91.40
26099;DHT22;13860;52.370;6.764;2023-12-20T16:59:08;8.70;91.50
26099;DHT22;13860;52.370;6.764;2023-12-20T17:02:13;8.80;91.40
26099;DHT22;13860;52.370;6.764;2023-12-20T17:05:23;8.80;91.60
26099;DHT22;13860;52.370;6.764;2023-12-20T17:08:29;8.70;91.40
26099;DHT22;13860;52.370;6.764;2023-12-20T17:11:37;8.80;91.70
26099;DHT22;13860;52.370;6.764;2023-12-20T17:14:43;8.80;92.50
26099;DHT22;13860;52.370;6.764;2023-12-20T17:17:51;8.80;91.70
26099;DHT22;13860;52.370;6.764;2023-12-20T17:20:59;8.70;91.30
26099;DHT22;13860;52.370;6.764;2023-12-20T17:24:07;8.70;91.30
26099;DHT22;13860;52.370;6.764;2023-12-20T17:27:13;8.80;92.70
26099;DHT22;13860;52.370;6.764;2023-12-20T17:30:21;8.90;92.90
26099;DHT22;13860;52.370;6.764;2023-12-20T17:33:27;8.70;91.30
26099;DHT22;13860;52.370;6.764;2023-12-20T17:36:37;8.70;91.30
26099;DHT22;13860;52.370;6.764;2023-12-20T17:39:42;8.70;91.30
26099;DHT22;13860;52.370;6.764;2023-12-20T17:42:50;8.60;91.30
26099;DHT22;13860;52.370;6.764;2023-12-20T17:45:56;8.60;91.30
26099;DHT22;13860;52.370;6.764;2023-12-20T17:49:04;8.70;91.30
26099;DHT22;13860;52.370;6.764;2023-12-20T17:52:12;8.60;91.30
26099;DHT22;13860;52.370;6.764;2023-12-20T17:55:20;8.60;91.30
26099;DHT22;13860;52.370;6.764;2023-12-20T17:58:26;8.60;91.30
26099;DHT22;13860;52.370;6.764;2023-12-20T18:01:33;8.60;91.30
26099;DHT22;13860;52.370;6.764;2023-12-20T18:04:39;8.70;91.40
26099;DHT22;13860;52.370;6.764;2023-12-20T18:07:50;8.70;91.40
26099;DHT22;13860;52.370;6.764;2023-12-20T18:10:56;8.70;91.40
26099;DHT22;13860;52.370;6.764;2023-12-20T18:14:03;8.70;91.40
26099;DHT22;13860;52.370;6.764;2023-12-20T18:17:10;8.70;91.40
26099;DHT22;13860;52.370;6.764;2023-12-20T18:20:17;8.70;91.40
26099;DHT22;13860;52.370;6.764;2023-12-20T18:23:26;8.70;91.40
26099;DHT22;13860;52.370;6.764;2023-12-20T18:26:33;8.70;91.50
26099;DHT22;13860;52.370;6.764;2023-12-20T18:29:42;8.70;91.50
26099;DHT22;13860;52.370;6.764;2023-12-20T18:32:50;8.70;91.50
26099;DHT22;13860;52.370;6.764;2023-12-20T18:35:55;8.70;91.50
26099;DHT22;13860;52.370;6.764;2023-12-20T18:39:06;8.70;91.50
26099;DHT22;13860;52.370;6.764;2023-12-20T18:42:11;8.70;91.50
26099;DHT22;13860;52.370;6.764;2023-12-20T18:45:19;8.70;91.50
26099;DHT22;13860;52.370;6.764;2023-12-20T18:48:24;8.80;91.50
26099;DHT22;13860;52.370;6.764;2023-12-20T18:51:32;8.70;91.50
26099;DHT22;13860;52.370;6.764;2023-12-20T18:54:40;8.80;91.50
26099;DHT22;13860;52.370;6.764;2023-12-20T18:57:48;8.70;91.50
26099;DHT22;13860;52.370;6.764;2023-12-20T19:00:54;8.80;91.60
26099;DHT22;13860;52.370;6.764;2023-12-20T19:04:02;8.80;91.60
26099;DHT22;13860;52.370;6.764;2023-12-20T19:07:08;8.80;91.60
26099;DHT22;13860;52.370;6.764;2023-12-20T19:10:19;8.80;91.60
26099;DHT22;13860;52.370;6.764;2023-12-20T19:13:27;8.80;91.60
26099;DHT22;13860;52.370;6.764;2023-12-20T19:16:38;8.80;91.90
26099;DHT22;13860;52.370;6.764;2023-12-20T19:19:44;8.90;91.70
26099;DHT22;13860;52.370;6.764;2023-12-20T19:22:52;8.80;91.60
26099;DHT22;13860;52.370;6.764;2023-12-20T19:26:00;8.90;91.70
26099;DHT22;13860;52.370;6.764;2023-12-20T19:29:08;8.90;91.70
26099;DHT22;13860;52.370;6.764;2023-12-20T19:32:14;8.90;91.70
26099;DHT22;13860;52.370;6.764;2023-12-20T19:35:21;8.90;91.70
26099;DHT22;13860;52.370;6.764;2023-12-20T19:38:27;9.10;91.70
26099;DHT22;13860;52.370;6.764;2023-12-20T19:41:37;9.00;91.70
26099;DHT22;13860;52.370;6.764;2023-12-20T19:44:43;9.00;91.70
26099;DHT22;13860;52.370;6.764;2023-12-20T19:47:52;9.10;91.70
26099;DHT22;13860;52.370;6.764;2023-12-20T19:50:57;9.10;91.70
26099;DHT22;13860;52.370;6.764;2023-12-20T19:54:05;9.00;91.70
26099;DHT22;13860;52.370;6.764;2023-12-20T19:57:14;9.10;91.70
26099;DHT22;13860;52.370;6.764;2023-12-20T20:00:22;9.10;91.80
26099;DHT22;13860;52.370;6.764;2023-12-20T20:03:27;9.20;91.80
26099;DHT22;13860;52.370;6.764;2023-12-20T20:06:35;9.20;91.80
26099;DHT22;13860;52.370;6.764;2023-12-20T20:09:41;9.20;91.80
26099;DHT22;13860;52.370;6.764;2023-12-20T20:12:51;9.10;91.80
26099;DHT22;13860;52.370;6.764;2023-12-20T20:15:59;9.20;91.80
26099;DHT22;13860;52.370;6.764;2023-12-20T20:19:06;9.20;91.80